createdAt,value
2022-12-18T00:01:49.498Z,54.28
2022-12-18T00:04:35.342Z,48.35
2022-12-18T00:07:20.866Z,45.85
2022-12-18T00:10:06.983Z,51.83
2022-12-18T00:12:52.367Z,53.08
2022-12-18T00:15:40.026Z,47.92
2022-12-18T00:18:25.547Z,45.67
2022-12-18T00:21:13.021Z,46.90
2022-12-18T00:23:59.448Z,46.95
2022-12-18T00:26:45.091Z,51.50
2022-12-18T00:29:30.505Z,50.45
2022-12-18T00:32:16.006Z,48.97
2022-12-18T00:35:01.521Z,49.00
2022-12-18T00:37:47.107Z,49.00
2022-12-18T00:40:32.640Z,48.30
2022-12-18T00:43:18.063Z,50.50
2022-12-18T00:46:04.020Z,46.03
2022-12-18T00:48:50.693Z,40.80
2022-12-18T00:51:36.183Z,47.17
2022-12-18T00:54:21.713Z,47.15
2022-12-18T00:57:07.146Z,51.17
2022-12-18T00:59:52.879Z,44.85
2022-12-18T01:02:38.499Z,43.85
2022-12-18T01:05:23.916Z,46.58
2022-12-18T01:08:09.348Z,44.63
2022-12-18T01:10:54.906Z,44.83
2022-12-18T01:13:41.848Z,43.15
2022-12-18T01:16:27.517Z,43.35
2022-12-18T01:19:12.931Z,43.72
2022-12-18T01:21:59.068Z,52.65
2022-12-18T01:24:44.547Z,51.92
2022-12-18T01:27:29.981Z,44.05
2022-12-18T01:30:15.386Z,49.55
2022-12-18T01:33:00.971Z,50.65
2022-12-18T01:35:46.496Z,52.55
2022-12-18T01:38:32.172Z,40.13
2022-12-18T01:41:20.548Z,52.10
2022-12-18T01:44:44.636Z,53.33
2022-12-18T01:47:50.582Z,52.80
2022-12-18T01:50:43.932Z,44.92
2022-12-18T01:53:29.843Z,49.25
2022-12-18T01:56:17.758Z,56.88
2022-12-18T01:59:07.277Z,54.28
2022-12-18T02:01:53.113Z,42.08
2022-12-18T02:04:39.116Z,49.33
2022-12-18T02:07:41.281Z,53.20
2022-12-18T02:11:02.269Z,52.03
2022-12-18T02:13:57.030Z,50.47
2022-12-18T02:17:04.342Z,61.75
2022-12-18T02:20:20.098Z,52.72
2022-12-18T02:23:32.676Z,54.60
2022-12-18T02:26:23.450Z,55.35
2022-12-18T02:29:17.924Z,49.88
2022-12-18T02:32:09.576Z,46.65
2022-12-18T02:34:58.381Z,47.15
2022-12-18T02:37:46.993Z,47.47
2022-12-18T02:40:33.286Z,47.08
2022-12-18T02:43:18.698Z,42.70
2022-12-18T02:46:37.536Z,47.22
2022-12-18T02:49:49.120Z,45.40
2022-12-18T02:52:53.342Z,49.40
2022-12-18T02:55:45.798Z,57.97
2022-12-18T02:58:43.441Z,48.20
2022-12-18T03:01:47.520Z,54.40
2022-12-18T03:04:50.744Z,49.03
2022-12-18T03:08:04.955Z,55.00
2022-12-18T03:11:00.918Z,54.08
2022-12-18T03:13:57.554Z,60.63
2022-12-18T03:16:44.769Z,64.78
2022-12-18T03:19:34.126Z,61.58
2022-12-18T03:22:21.169Z,64.55
2022-12-18T03:25:11.261Z,58.25
2022-12-18T03:27:59.894Z,63.15
2022-12-18T03:30:49.083Z,56.92
2022-12-18T03:33:46.516Z,60.22
2022-12-18T03:36:32.827Z,57.97
2022-12-18T03:39:18.568Z,66.63
2022-12-18T03:42:31.128Z,64.22
2022-12-18T03:45:28.504Z,56.78
2022-12-18T03:48:39.750Z,58.65
2022-12-18T03:51:33.250Z,56.45
2022-12-18T03:54:20.112Z,55.40
2022-12-18T03:57:14.711Z,63.88
2022-12-18T04:00:18.754Z,53.95
2022-12-18T04:03:05.817Z,60.17
2022-12-18T04:05:53.544Z,50.78
2022-12-18T04:08:41.497Z,53.35
2022-12-18T04:11:27.326Z,54.00
2022-12-18T04:14:17.706Z,46.65
2022-12-18T04:17:04.422Z,57.47
2022-12-18T04:19:50.255Z,57.03
2022-12-18T04:22:36.551Z,51.15
2022-12-18T04:25:22.385Z,52.22
2022-12-18T04:28:08.023Z,52.67
2022-12-18T04:30:53.438Z,52.75
2022-12-18T04:33:39.298Z,57.25
2022-12-18T04:36:28.428Z,53.45
2022-12-18T04:39:14.180Z,54.33
2022-12-18T04:41:59.894Z,55.15
2022-12-18T04:44:45.693Z,52.58
2022-12-18T04:47:32.217Z,54.90
2022-12-18T04:50:18.343Z,55.28
2022-12-18T04:53:03.563Z,56.88
2022-12-18T04:55:49.004Z,55.42
2022-12-18T04:58:34.931Z,57.53
2022-12-18T05:01:20.353Z,58.70
2022-12-18T05:04:06.689Z,52.85
2022-12-18T05:06:52.208Z,50.65
2022-12-18T05:09:37.520Z,58.97
2022-12-18T05:12:26.192Z,56.17
2022-12-18T05:15:11.669Z,61.10
2022-12-18T05:17:58.971Z,63.65
2022-12-18T05:20:45.256Z,55.97
2022-12-18T05:23:30.616Z,65.78
2022-12-18T05:26:18.262Z,65.82
2022-12-18T05:29:04.246Z,61.40
2022-12-18T05:31:49.871Z,58.35
2022-12-18T05:34:35.251Z,57.00
2022-12-18T05:37:20.604Z,52.83
2022-12-18T05:40:06.712Z,53.63
2022-12-18T05:42:52.681Z,54.95
2022-12-18T05:45:39.396Z,62.28
2022-12-18T05:48:25.204Z,63.83
2022-12-18T05:51:13.992Z,52.45
2022-12-18T05:53:59.462Z,48.70
2022-12-18T05:56:48.630Z,55.88
2022-12-18T05:59:34.586Z,53.53
2022-12-18T06:02:22.184Z,54.70
2022-12-18T06:05:08.341Z,48.35
2022-12-18T06:07:53.772Z,54.00
2022-12-18T06:10:39.757Z,51.42
2022-12-18T06:13:25.341Z,53.78
2022-12-18T06:16:11.656Z,49.58
2022-12-18T06:18:58.991Z,55.55
2022-12-18T06:21:45.752Z,53.83
2022-12-18T06:24:31.544Z,47.35
2022-12-18T06:27:17.224Z,49.45
2022-12-18T06:30:04.226Z,46.55
2022-12-18T06:32:56.421Z,45.75
2022-12-18T06:35:42.471Z,48.03
2022-12-18T06:38:28.295Z,48.15
2022-12-18T06:41:16.004Z,46.08
2022-12-18T06:44:01.558Z,45.58
2022-12-18T06:46:46.971Z,52.90
2022-12-18T06:49:32.465Z,43.10
2022-12-18T06:52:17.927Z,46.53
2022-12-18T06:55:03.675Z,46.58
2022-12-18T06:57:49.016Z,44.38
2022-12-18T07:00:34.794Z,54.92
2022-12-18T07:03:20.576Z,51.15
2022-12-18T07:06:06.180Z,42.70
2022-12-18T07:08:52.616Z,47.05
2022-12-18T07:11:38.113Z,46.88
2022-12-18T07:14:23.365Z,44.70
2022-12-18T07:17:09.017Z,47.13
2022-12-18T07:19:54.843Z,47.80
2022-12-18T07:22:40.454Z,42.35
2022-12-18T07:25:25.857Z,45.92
2022-12-18T07:28:17.031Z,47.47
2022-12-18T07:31:11.170Z,45.38
2022-12-18T07:33:57.551Z,48.25
2022-12-18T07:36:43.157Z,49.83
2022-12-18T07:39:28.696Z,49.60
2022-12-18T07:42:32.152Z,47.05
2022-12-18T07:45:17.653Z,53.75
2022-12-18T07:48:03.009Z,41.13
2022-12-18T07:50:48.343Z,55.47
2022-12-18T07:53:35.496Z,57.55
2022-12-18T07:56:30.340Z,46.40
2022-12-18T07:59:16.791Z,40.90
2022-12-18T08:02:02.480Z,52.88
2022-12-18T08:04:48.140Z,47.83
2022-12-18T08:07:33.421Z,50.28
2022-12-18T08:10:19.482Z,55.50
2022-12-18T08:13:05.463Z,45.60
2022-12-18T08:16:05.520Z,51.55
2022-12-18T08:18:53.711Z,50.03
2022-12-18T08:21:39.289Z,58.22
2022-12-18T08:24:24.903Z,52.78
2022-12-18T08:27:29.002Z,60.45
2022-12-18T08:30:15.125Z,66.25
2022-12-18T08:33:00.563Z,54.85
2022-12-18T08:35:46.326Z,60.10
2022-12-18T08:38:33.090Z,62.25
2022-12-18T08:41:19.315Z,63.20
2022-12-18T08:44:23.435Z,74.40
2022-12-18T08:47:09.636Z,64.03
2022-12-18T08:49:55.082Z,58.33
2022-12-18T08:52:40.570Z,70.60
2022-12-18T08:55:26.224Z,72.47
2022-12-18T08:58:11.793Z,66.32
2022-12-18T09:01:05.360Z,63.58
2022-12-18T09:03:51.595Z,70.45
2022-12-18T09:06:37.916Z,65.43
2022-12-18T09:09:24.634Z,61.85
2022-12-18T09:12:10.847Z,64.55
2022-12-18T09:14:57.593Z,57.85
2022-12-18T09:17:43.449Z,58.72
2022-12-18T09:20:30.944Z,62.03
2022-12-18T09:23:16.483Z,64.28
2022-12-18T09:26:02.479Z,63.17
2022-12-18T09:28:48.621Z,75.05
2022-12-18T09:31:35.026Z,71.97
2022-12-18T09:34:22.798Z,57.20
2022-12-18T09:37:08.470Z,66.72
2022-12-18T09:39:54.102Z,65.25
2022-12-18T09:42:39.687Z,66.20
2022-12-18T09:45:25.933Z,69.03
2022-12-18T09:48:23.412Z,77.63
2022-12-18T09:51:20.091Z,73.07
2022-12-18T09:54:17.293Z,99.90
2022-12-18T09:57:03.436Z,104.05
2022-12-18T09:59:55.487Z,98.28
2022-12-18T10:02:42.565Z,86.35
2022-12-18T10:05:59.397Z,67.68
2022-12-18T10:09:00.673Z,79.03
2022-12-18T10:12:11.965Z,65.90
2022-12-18T10:15:06.453Z,56.25
2022-12-18T10:18:34.667Z,59.47
2022-12-18T10:21:26.234Z,52.38
2022-12-18T10:24:30.978Z,53.47
2022-12-18T10:27:26.626Z,54.97
2022-12-18T10:30:22.043Z,53.08
2022-12-18T10:33:10.297Z,54.92
2022-12-18T10:35:56.702Z,51.25
2022-12-18T10:38:42.887Z,52.40
2022-12-18T10:41:29.547Z,54.65
2022-12-18T10:44:28.332Z,55.70
2022-12-18T10:47:19.027Z,52.85
2022-12-18T10:50:05.061Z,51.40
2022-12-18T10:52:56.857Z,52.83
2022-12-18T10:55:46.939Z,68.00
2022-12-18T10:58:39.014Z,74.55
2022-12-18T11:01:24.623Z,64.45
2022-12-18T11:04:10.714Z,67.13
2022-12-18T11:07:01.888Z,73.22
2022-12-18T11:10:01.843Z,52.95
2022-12-18T11:12:48.432Z,50.78
2022-12-18T11:15:34.869Z,53.85
2022-12-18T11:18:31.622Z,54.50
2022-12-18T11:21:17.696Z,49.50
2022-12-18T11:24:03.325Z,54.65
2022-12-18T11:26:52.670Z,124.10
2022-12-18T11:29:46.554Z,92.93
2022-12-18T11:32:37.474Z,90.93
2022-12-18T11:35:40.983Z,88.20
2022-12-18T11:38:30.736Z,88.15
2022-12-18T11:41:44.921Z,87.78
2022-12-18T11:44:51.808Z,70.03
2022-12-18T11:48:04.885Z,87.43
2022-12-18T11:50:54.048Z,91.22
2022-12-18T11:53:40.981Z,58.13
2022-12-18T11:56:37.340Z,57.20
2022-12-18T11:59:37.833Z,61.15
2022-12-18T12:02:41.682Z,58.15
2022-12-18T12:06:07.977Z,62.28
2022-12-18T12:09:22.633Z,56.67
2022-12-18T12:12:49.193Z,53.95
2022-12-18T12:15:46.834Z,88.88
2022-12-18T12:18:53.149Z,73.57
2022-12-18T12:21:45.446Z,58.38
2022-12-18T12:24:46.777Z,60.45
2022-12-18T12:27:52.430Z,58.13
2022-12-18T12:31:14.511Z,61.03
2022-12-18T12:34:05.926Z,64.97
2022-12-18T12:37:20.575Z,58.03
2022-12-18T12:40:26.833Z,55.75
2022-12-18T12:43:32.060Z,66.15
2022-12-18T12:46:20.856Z,65.50
2022-12-18T12:49:20.505Z,64.03
2022-12-18T12:52:14.816Z,67.93
2022-12-18T12:55:02.946Z,61.70
2022-12-18T12:58:18.639Z,69.68
2022-12-18T13:01:17.272Z,70.80
2022-12-18T13:04:24.888Z,71.70
2022-12-18T13:07:24.674Z,71.07
2022-12-18T13:10:22.467Z,65.40
2022-12-18T13:13:13.497Z,62.67
2022-12-18T13:16:08.574Z,58.67
2022-12-18T13:18:59.611Z,59.13
2022-12-18T13:21:54.611Z,62.65
2022-12-18T13:24:40.510Z,65.50
2022-12-18T13:27:44.491Z,65.80
2022-12-18T13:30:33.045Z,64.25
2022-12-18T13:33:18.587Z,92.32
2022-12-18T13:36:25.846Z,68.43
2022-12-18T13:39:28.872Z,65.38
2022-12-18T13:42:37.115Z,63.05
2022-12-18T13:45:43.376Z,61.08
2022-12-18T13:48:34.300Z,66.70
2022-12-18T13:51:21.542Z,61.97
2022-12-18T13:54:27.136Z,61.22
2022-12-18T13:57:33.460Z,61.25
2022-12-18T14:00:30.604Z,58.45
2022-12-18T14:03:22.560Z,62.40
2022-12-18T14:06:09.973Z,66.38
2022-12-18T14:08:56.480Z,60.92
2022-12-18T14:11:48.408Z,66.90
2022-12-18T14:14:34.720Z,66.70
2022-12-18T14:17:20.826Z,67.72
2022-12-18T14:20:18.416Z,67.65
2022-12-18T14:23:04.059Z,66.35
2022-12-18T14:25:49.873Z,69.13
2022-12-18T14:28:45.244Z,66.72
2022-12-18T14:31:32.729Z,71.45
2022-12-18T14:34:18.579Z,66.07
2022-12-18T14:37:04.862Z,61.38
2022-12-18T14:39:59.332Z,72.40
2022-12-18T14:42:46.531Z,66.57
2022-12-18T14:45:42.379Z,61.40
2022-12-18T14:48:41.219Z,67.68
2022-12-18T14:51:29.141Z,60.80
2022-12-18T14:54:19.019Z,63.08
2022-12-18T14:57:16.298Z,62.55
2022-12-18T15:00:07.921Z,61.55
2022-12-18T15:02:57.979Z,60.95
2022-12-18T15:05:44.284Z,70.53
2022-12-18T15:08:35.902Z,70.45
2022-12-18T15:11:47.040Z,71.72
2022-12-18T15:14:38.353Z,67.95
2022-12-18T15:17:28.559Z,77.05
2022-12-18T15:20:15.079Z,76.53
2022-12-18T15:23:00.403Z,76.57
2022-12-18T15:25:47.837Z,80.85
2022-12-18T15:28:57.096Z,77.50
2022-12-18T15:31:42.674Z,82.15
2022-12-18T15:34:29.191Z,78.85
2022-12-18T15:37:14.442Z,77.97
2022-12-18T15:39:59.959Z,74.63
2022-12-18T15:43:05.509Z,81.35
2022-12-18T15:48:42.321Z,75.18
2022-12-18T15:51:34.037Z,78.65
2022-12-18T15:54:39.403Z,67.50
2022-12-18T16:00:13.524Z,75.97
2022-12-18T16:02:59.088Z,75.93
2022-12-18T16:05:44.705Z,70.75
2022-12-18T16:08:31.099Z,78.22
2022-12-18T16:11:38.992Z,80.82
2022-12-18T16:14:30.111Z,77.45
2022-12-18T16:17:16.473Z,73.57
2022-12-18T16:20:02.198Z,74.63
2022-12-18T16:22:49.018Z,74.88
2022-12-18T16:25:34.560Z,80.22
2022-12-18T16:28:20.029Z,95.10
2022-12-18T16:31:05.977Z,131.48
2022-12-18T16:34:10.725Z,101.93
2022-12-18T16:37:01.697Z,86.93
2022-12-18T16:39:50.542Z,83.77
2022-12-18T16:42:37.633Z,91.68
2022-12-18T16:45:23.202Z,90.28
2022-12-18T16:48:08.894Z,96.70
2022-12-18T16:51:02.272Z,98.72
2022-12-18T16:53:48.338Z,88.57
2022-12-18T16:56:34.161Z,80.18
2022-12-18T16:59:20.049Z,89.05
2022-12-18T17:02:05.867Z,87.18
2022-12-18T17:04:55.090Z,92.07
2022-12-18T17:07:40.822Z,96.90
2022-12-18T17:10:26.197Z,91.22
2022-12-18T17:13:11.795Z,91.70
2022-12-18T17:16:06.775Z,110.65
2022-12-18T17:21:41.848Z,110.45
2022-12-18T17:24:31.489Z,95.20
2022-12-18T17:27:20.493Z,96.35
2022-12-18T17:30:06.457Z,100.25
2022-12-18T17:32:52.367Z,103.28
2022-12-18T17:35:37.919Z,94.35
2022-12-18T17:38:23.543Z,98.38
2022-12-18T17:41:10.909Z,104.38
2022-12-18T17:44:04.187Z,107.63
2022-12-18T17:46:49.964Z,117.72
2022-12-18T17:49:35.854Z,114.72
2022-12-18T17:52:21.687Z,113.40
2022-12-18T17:55:07.815Z,101.20
2022-12-18T17:57:53.877Z,114.68
2022-12-18T18:00:39.757Z,138.13
2022-12-18T18:03:25.771Z,128.68
2022-12-18T18:06:11.730Z,115.50
2022-12-18T18:08:57.588Z,104.35
2022-12-18T18:12:02.450Z,104.03
2022-12-18T18:14:48.108Z,105.37
2022-12-18T18:17:33.705Z,106.20
2022-12-18T18:20:22.471Z,95.38
2022-12-18T18:23:08.495Z,104.13
2022-12-18T18:25:54.357Z,92.53
2022-12-18T18:28:41.429Z,102.38
2022-12-18T18:31:28.457Z,98.53
2022-12-18T18:34:16.510Z,103.60
2022-12-18T18:37:03.230Z,79.55
2022-12-18T18:39:48.860Z,82.03
2022-12-18T18:42:34.480Z,77.95
2022-12-18T18:45:19.822Z,79.50
2022-12-18T18:48:05.847Z,76.57
2022-12-18T18:50:58.819Z,71.50
2022-12-18T18:53:46.361Z,68.78
2022-12-18T18:59:38.255Z,116.30
2022-12-18T19:02:23.874Z,100.75
2022-12-18T19:05:10.023Z,90.20
2022-12-18T19:07:55.953Z,69.63
2022-12-18T19:10:41.820Z,69.43
2022-12-18T19:13:30.267Z,73.80
2022-12-18T19:16:15.864Z,91.22
2022-12-18T19:19:02.306Z,88.97
2022-12-18T19:21:50.096Z,81.97
2022-12-18T19:24:36.222Z,65.30
2022-12-18T19:27:21.594Z,74.05
2022-12-18T19:30:07.774Z,79.85
2022-12-18T19:32:53.375Z,70.22
2022-12-18T19:35:38.857Z,74.30
2022-12-18T19:38:24.827Z,64.70
2022-12-18T19:41:10.734Z,61.60
2022-12-18T19:43:57.060Z,63.15
2022-12-18T19:46:43.048Z,65.35
2022-12-18T19:49:28.614Z,64.57
2022-12-18T19:52:16.123Z,64.35
2022-12-18T19:55:01.880Z,61.17
2022-12-18T19:57:47.520Z,58.10
2022-12-18T20:00:34.317Z,59.05
2022-12-18T20:03:28.710Z,65.22
2022-12-18T20:06:35.674Z,62.33
2022-12-18T20:09:21.854Z,62.28
2022-12-18T20:12:08.459Z,63.55
2022-12-18T20:14:54.123Z,63.50
2022-12-18T20:17:40.258Z,59.80
2022-12-18T20:20:26.735Z,76.50
2022-12-18T20:23:12.506Z,62.05
2022-12-18T20:25:58.410Z,61.97
2022-12-18T20:28:44.107Z,63.33
2022-12-18T20:31:30.121Z,67.68
2022-12-18T20:34:15.588Z,83.00
2022-12-18T20:37:01.835Z,72.40
2022-12-18T20:39:48.237Z,74.22
2022-12-18T20:42:34.261Z,81.43
2022-12-18T20:45:19.802Z,117.45
2022-12-18T20:48:05.414Z,95.93
2022-12-18T20:51:05.746Z,74.28
2022-12-18T20:53:52.716Z,72.82
2022-12-18T20:56:38.174Z,66.57
2022-12-18T20:59:25.568Z,76.18
2022-12-18T21:02:13.271Z,85.82
2022-12-18T21:04:59.114Z,78.35
2022-12-18T21:07:44.668Z,79.47
2022-12-18T21:10:30.283Z,72.35
2022-12-18T21:13:16.656Z,65.28
2022-12-18T21:16:04.350Z,63.88
2022-12-18T21:18:51.958Z,82.28
2022-12-18T21:21:41.794Z,77.13
2022-12-18T21:24:32.021Z,84.05
2022-12-18T21:27:18.869Z,83.03
2022-12-18T21:30:04.801Z,75.55
2022-12-18T21:32:50.615Z,78.10
2022-12-18T21:35:36.431Z,78.13
2022-12-18T21:38:21.894Z,80.43
2022-12-18T21:41:08.769Z,72.15
2022-12-18T21:44:06.984Z,75.72
2022-12-18T21:46:57.430Z,71.55
2022-12-18T21:49:47.221Z,70.50
2022-12-18T21:52:32.976Z,74.00
2022-12-18T21:55:18.522Z,68.97
2022-12-18T21:58:04.585Z,67.50
2022-12-18T22:00:50.214Z,64.32
2022-12-18T22:03:36.250Z,58.55
2022-12-18T22:06:22.525Z,62.85
2022-12-18T22:09:08.690Z,64.95
2022-12-18T22:11:54.950Z,62.60
2022-12-18T22:14:40.570Z,68.78
2022-12-18T22:17:26.799Z,66.50
2022-12-18T22:20:12.873Z,53.42
2022-12-18T22:22:59.553Z,66.13
2022-12-18T22:25:51.921Z,62.75
2022-12-18T22:28:56.912Z,62.80
2022-12-18T22:31:42.899Z,60.78
2022-12-18T22:34:29.200Z,62.75
2022-12-18T22:37:15.138Z,65.35
2022-12-18T22:40:03.179Z,61.78
2022-12-18T22:42:49.235Z,59.33
2022-12-18T22:45:38.440Z,63.78
2022-12-18T22:48:24.966Z,65.55
2022-12-18T22:51:18.114Z,58.78
2022-12-18T22:54:04.428Z,58.20
2022-12-18T22:56:51.306Z,65.10
2022-12-18T22:59:36.995Z,62.58
2022-12-18T23:02:23.132Z,63.03
2022-12-18T23:05:09.371Z,63.17
2022-12-18T23:07:55.097Z,63.67
2022-12-18T23:10:40.794Z,62.85
2022-12-18T23:13:27.538Z,59.95
2022-12-18T23:16:15.247Z,71.78
2022-12-18T23:19:01.188Z,65.25
2022-12-18T23:21:46.634Z,68.20
2022-12-18T23:24:32.786Z,62.58
2022-12-18T23:27:18.572Z,62.78
2022-12-18T23:30:04.732Z,70.13
2022-12-18T23:32:50.407Z,61.45
2022-12-18T23:35:35.853Z,62.05
2022-12-18T23:38:21.272Z,72.47
2022-12-18T23:41:12.232Z,71.78
2022-12-18T23:43:59.164Z,63.92
2022-12-18T23:46:44.599Z,68.63
2022-12-18T23:49:30.457Z,63.63
2022-12-18T23:52:16.353Z,59.95
2022-12-18T23:55:01.956Z,60.45
2022-12-18T23:57:47.401Z,70.40
